createdAt,value
2018-06-02T00:02:12.975Z,57.57
2018-06-02T00:04:42.494Z,60.07
2018-06-02T00:07:10.954Z,57.43
2018-06-02T00:09:39.392Z,54.73
2018-06-02T00:12:07.801Z,53.83
2018-06-02T00:14:36.317Z,61.07
2018-06-02T00:17:04.784Z,57.53
2018-06-02T00:19:33.346Z,63.10
2018-06-02T00:22:01.797Z,63.70
2018-06-02T00:24:31.392Z,62.80
2018-06-02T00:26:59.922Z,69.20
2018-06-02T00:29:28.462Z,65.60
2018-06-02T00:31:56.941Z,62.17
2018-06-02T00:34:25.431Z,64.70
2018-06-02T00:36:53.865Z,62.57
2018-06-02T00:39:22.269Z,63.20
2018-06-02T00:41:50.734Z,59.53
2018-06-02T00:44:19.216Z,60.73
2018-06-02T00:46:47.658Z,65.93
2018-06-02T00:49:16.070Z,63.13
2018-06-02T00:51:44.512Z,63.23
2018-06-02T00:54:12.975Z,62.10
2018-06-02T00:56:42.709Z,59.63
2018-06-02T00:59:11.103Z,61.70
2018-06-02T01:01:40.290Z,62.87
2018-06-02T01:04:08.800Z,65.87
2018-06-02T01:06:37.301Z,61.07
2018-06-02T01:09:05.772Z,65.83
2018-06-02T01:11:34.254Z,60.40
2018-06-02T01:14:02.688Z,65.60
2018-06-02T01:16:31.178Z,64.97
2018-06-02T01:18:59.539Z,69.77
2018-06-02T01:21:27.991Z,65.73
2018-06-02T01:23:56.417Z,64.20
2018-06-02T01:26:24.840Z,65.87
2018-06-02T01:28:53.278Z,59.87
2018-06-02T01:31:21.759Z,57.07
2018-06-02T01:33:51.002Z,54.83
2018-06-02T01:36:19.453Z,58.50
2018-06-02T01:38:47.931Z,54.20
2018-06-02T01:41:16.374Z,56.60
2018-06-02T01:43:45.707Z,44.40
2018-06-02T01:46:14.169Z,46.03
2018-06-02T01:48:43.672Z,35.13
2018-06-02T01:51:12.203Z,36.17
2018-06-02T01:53:40.717Z,33.93
2018-06-02T01:56:09.253Z,35.07
2018-06-02T01:58:38.575Z,29.77
2018-06-02T02:01:07.054Z,31.57
2018-06-02T02:03:35.538Z,27.30
2018-06-02T02:06:04.095Z,31.27
2018-06-02T02:08:32.572Z,30.50
2018-06-02T02:11:01.043Z,26.10
2018-06-02T02:13:29.501Z,25.00
2018-06-02T02:15:59.231Z,28.23
2018-06-02T02:18:27.695Z,26.43
2018-06-02T02:20:56.209Z,25.37
2018-06-02T02:23:24.649Z,20.43
2018-06-02T02:25:53.147Z,21.63
2018-06-02T02:28:21.650Z,21.27
2018-06-02T02:30:50.379Z,18.83
2018-06-02T02:33:18.888Z,18.20
2018-06-02T02:35:47.806Z,19.03
2018-06-02T02:38:16.223Z,16.90
2018-06-02T02:40:44.644Z,16.87
2018-06-02T02:43:13.132Z,15.97
2018-06-02T02:45:42.855Z,17.03
2018-06-02T02:48:11.462Z,16.47
2018-06-02T02:50:40.700Z,15.23
2018-06-02T02:53:09.216Z,16.93
2018-06-02T02:55:37.689Z,16.30
2018-06-02T02:58:07.036Z,16.20
2018-06-02T03:00:35.484Z,18.10
2018-06-02T03:03:03.972Z,18.53
2018-06-02T03:05:32.396Z,16.50
2018-06-02T03:08:00.918Z,17.70
2018-06-02T03:10:29.410Z,16.27
2018-06-02T03:12:57.833Z,15.70
2018-06-02T03:15:26.244Z,18.27
2018-06-02T03:17:54.642Z,16.43
2018-06-02T03:20:23.172Z,17.50
2018-06-02T03:22:51.569Z,16.63
2018-06-02T03:25:20.013Z,20.13
2018-06-02T03:27:48.470Z,18.27
2018-06-02T03:30:16.885Z,18.73
2018-06-02T03:32:46.051Z,16.50
2018-06-02T03:35:14.450Z,16.60
2018-06-02T03:37:42.922Z,17.17
2018-06-02T03:40:11.418Z,21.33
2018-06-02T03:42:40.615Z,19.90
2018-06-02T03:45:09.113Z,17.90
2018-06-02T03:47:37.564Z,20.67
2018-06-02T03:50:06.020Z,17.27
2018-06-02T03:52:34.455Z,18.50
2018-06-02T03:55:03.739Z,18.60
2018-06-02T03:57:33.015Z,20.47
2018-06-02T04:00:01.548Z,18.80
2018-06-02T04:02:30.012Z,18.80
2018-06-02T04:04:59.228Z,16.87
2018-06-02T04:07:27.758Z,19.30
2018-06-02T04:09:56.139Z,19.73
2018-06-02T04:12:24.611Z,20.67
2018-06-02T04:14:53.109Z,19.30
2018-06-02T04:17:21.561Z,24.37
2018-06-02T04:19:50.003Z,21.47
2018-06-02T04:22:19.219Z,20.17
2018-06-02T04:24:47.671Z,22.77
2018-06-02T04:27:16.133Z,24.37
2018-06-02T04:29:44.605Z,23.40
2018-06-02T04:32:13.146Z,26.03
2018-06-02T04:34:41.590Z,27.03
2018-06-02T04:37:10.048Z,26.60
2018-06-02T04:39:38.510Z,30.20
2018-06-02T04:42:06.973Z,30.33
2018-06-02T04:44:35.414Z,29.20
2018-06-02T04:47:03.857Z,31.40
2018-06-02T04:49:33.012Z,34.13
2018-06-02T04:52:01.505Z,31.43
2018-06-02T04:54:29.903Z,33.63
2018-06-02T04:56:58.393Z,36.20
2018-06-02T04:59:26.929Z,36.13
2018-06-02T05:01:56.093Z,34.87
2018-06-02T05:04:24.614Z,36.03
2018-06-02T05:06:53.058Z,35.53
2018-06-02T05:09:21.533Z,33.70
2018-06-02T05:11:50.008Z,37.77
2018-06-02T05:14:18.477Z,35.77
2018-06-02T05:16:46.988Z,35.43
2018-06-02T05:19:15.561Z,38.20
2018-06-02T05:21:43.949Z,36.23
2018-06-02T05:24:12.431Z,39.23
2018-06-02T05:26:40.836Z,39.67
2018-06-02T05:29:10.001Z,38.27
2018-06-02T05:31:38.471Z,40.43
2018-06-02T05:34:06.919Z,41.37
2018-06-02T05:36:35.357Z,42.17
2018-06-02T05:39:04.008Z,44.30
2018-06-02T05:41:32.466Z,42.67
2018-06-02T05:44:00.867Z,42.17
2018-06-02T05:46:29.339Z,42.77
2018-06-02T05:49:01.539Z,44.27
2018-06-02T05:51:30.021Z,38.90
2018-06-02T05:53:58.513Z,43.70
2018-06-02T05:56:26.933Z,44.60
2018-06-02T05:58:55.465Z,39.97
2018-06-02T06:01:24.433Z,45.63
2018-06-02T06:03:52.866Z,38.33
2018-06-02T06:06:21.358Z,39.80
2018-06-02T06:08:50.621Z,44.93
2018-06-02T06:11:19.098Z,41.97
2018-06-02T06:13:47.598Z,39.73
2018-06-02T06:16:16.044Z,39.23
2018-06-02T06:18:44.501Z,42.77
2018-06-02T06:21:13.032Z,38.67
2018-06-02T06:23:41.552Z,45.10
2018-06-02T06:26:10.062Z,41.63
2018-06-02T06:28:38.536Z,43.20
2018-06-02T06:31:06.938Z,45.20
2018-06-02T06:33:35.497Z,42.67
2018-06-02T06:36:03.993Z,41.73
2018-06-02T06:38:32.474Z,45.90
2018-06-02T06:41:01.012Z,43.80
2018-06-02T06:43:29.974Z,41.33
2018-06-02T06:45:59.240Z,39.37
2018-06-02T06:48:27.696Z,42.27
2018-06-02T06:50:56.141Z,41.53
2018-06-02T06:53:24.551Z,41.90
2018-06-02T06:55:53.001Z,43.87
2018-06-02T06:58:21.451Z,43.13
2018-06-02T07:00:49.882Z,43.67
2018-06-02T07:03:18.501Z,46.00
2018-06-02T07:05:46.989Z,42.10
2018-06-02T07:08:15.418Z,49.37
2018-06-02T07:10:43.899Z,42.87
2018-06-02T07:13:13.454Z,44.40
2018-06-02T07:15:41.935Z,44.93
2018-06-02T07:18:10.618Z,51.13
2018-06-02T07:20:39.145Z,45.87
2018-06-02T07:23:08.109Z,45.90
2018-06-02T07:25:36.570Z,43.70
2018-06-02T07:28:05.045Z,46.67
2018-06-02T07:30:33.603Z,49.33
2018-06-02T07:33:02.794Z,49.20
2018-06-02T07:35:31.219Z,47.57
2018-06-02T07:37:59.757Z,45.93
2018-06-02T07:40:28.296Z,53.67
2018-06-02T07:43:05.269Z,48.00
2018-06-02T07:45:34.621Z,51.80
2018-06-02T07:48:03.291Z,52.30
2018-06-02T07:50:32.977Z,55.17
2018-06-02T07:53:01.416Z,57.70
2018-06-02T07:55:29.977Z,48.80
2018-06-02T07:57:58.954Z,53.10
2018-06-02T08:00:28.781Z,51.70
2018-06-02T08:02:57.268Z,51.87
2018-06-02T08:05:25.800Z,52.60
2018-06-02T08:07:55.609Z,52.83
2018-06-02T08:10:24.181Z,53.13
2018-06-02T08:12:53.463Z,48.67
2018-06-02T08:15:25.437Z,51.23
2018-06-02T08:17:55.468Z,54.23
2018-06-02T08:20:25.748Z,48.53
2018-06-02T08:23:00.220Z,48.97
2018-06-02T08:25:28.835Z,52.83
2018-06-02T08:27:58.544Z,47.63
2018-06-02T08:30:27.177Z,47.17
2018-06-02T08:33:03.050Z,49.73
2018-06-02T08:35:33.157Z,52.37
2018-06-02T08:38:02.700Z,52.13
2018-06-02T08:40:33.806Z,45.47
2018-06-02T08:43:03.310Z,45.10
2018-06-02T08:45:36.860Z,48.47
2018-06-02T08:48:06.673Z,46.17
2018-06-02T08:50:36.169Z,48.53
2018-06-02T08:53:05.117Z,49.20
2018-06-02T08:55:33.812Z,47.20
2018-06-02T08:58:02.257Z,42.13
2018-06-02T09:00:32.708Z,47.27
2018-06-02T09:03:02.707Z,41.53
2018-06-02T09:05:32.528Z,41.93
2018-06-02T09:08:01.976Z,40.80
2018-06-02T09:10:30.377Z,40.77
2018-06-02T09:12:58.861Z,39.27
2018-06-02T09:15:28.392Z,38.93
2018-06-02T09:17:59.533Z,40.63
2018-06-02T09:20:28.083Z,40.93
2018-06-02T09:22:57.022Z,43.30
2018-06-02T09:25:25.960Z,38.67
2018-06-02T09:27:54.411Z,42.30
2018-06-02T09:30:24.159Z,46.87
2018-06-02T09:32:52.759Z,37.80
2018-06-02T09:35:21.396Z,37.60
2018-06-02T09:37:49.813Z,44.80
2018-06-02T09:40:19.128Z,38.40
2018-06-02T09:42:51.577Z,41.10
2018-06-02T09:45:20.196Z,40.80
2018-06-02T09:47:50.533Z,41.63
2018-06-02T09:50:19.035Z,42.23
2018-06-02T09:52:47.574Z,43.50
2018-06-02T09:55:16.235Z,40.20
2018-06-02T09:57:44.682Z,40.63
2018-06-02T10:00:13.343Z,39.83
2018-06-02T10:02:43.283Z,43.57
2018-06-02T10:05:12.223Z,42.73
2018-06-02T10:07:40.711Z,39.33
2018-06-02T10:10:09.336Z,43.17
2018-06-02T10:12:38.404Z,42.00
2018-06-02T10:15:07.589Z,43.33
2018-06-02T10:17:36.092Z,41.63
2018-06-02T10:20:04.641Z,43.10
2018-06-02T10:22:33.939Z,42.30
2018-06-02T10:25:05.338Z,42.22
2018-06-02T10:27:34.204Z,39.40
2018-06-02T10:30:05.310Z,43.33
2018-06-02T10:32:35.611Z,41.00
2018-06-02T10:35:04.098Z,41.83
2018-06-02T10:37:32.603Z,37.70
2018-06-02T10:40:01.809Z,45.17
2018-06-02T10:42:30.333Z,41.07
2018-06-02T10:44:58.772Z,39.33
2018-06-02T10:47:28.640Z,36.83
2018-06-02T10:49:58.721Z,30.77
2018-06-02T10:52:27.256Z,27.73
2018-06-02T10:54:56.592Z,29.65
2018-06-02T10:57:25.069Z,23.83
2018-06-02T10:59:53.501Z,27.87
2018-06-02T11:02:24.021Z,23.60
2018-06-02T11:04:52.977Z,24.35
2018-06-02T11:07:21.486Z,23.70
2018-06-02T11:09:49.862Z,20.05
2018-06-02T11:12:18.393Z,20.88
2018-06-02T11:14:47.714Z,20.15
2018-06-02T11:17:16.334Z,20.27
2018-06-02T11:19:45.312Z,20.95
2018-06-02T11:22:13.753Z,19.12
2018-06-02T11:24:43.034Z,19.75
2018-06-02T11:27:11.532Z,17.95
2018-06-02T11:29:39.977Z,18.12
2018-06-02T11:32:08.431Z,21.25
2018-06-02T11:34:36.851Z,19.30
2018-06-02T11:37:05.334Z,21.27
2018-06-02T11:39:33.821Z,22.65
2018-06-02T11:42:02.329Z,18.60
2018-06-02T11:44:32.064Z,20.62
2018-06-02T11:47:00.591Z,18.10
2018-06-02T11:49:29.015Z,22.30
2018-06-02T11:51:57.514Z,18.05
2018-06-02T11:54:25.972Z,18.62
2018-06-02T11:56:54.686Z,19.40
2018-06-02T11:59:23.110Z,18.50
2018-06-02T12:01:51.636Z,20.10
2018-06-02T12:04:20.011Z,19.05
2018-06-02T12:06:48.983Z,18.30
2018-06-02T12:09:17.371Z,16.00
2018-06-02T12:11:46.551Z,17.25
2018-06-02T12:14:14.998Z,18.17
2018-06-02T12:16:43.432Z,20.55
2018-06-02T12:19:11.843Z,20.42
2018-06-02T12:21:40.250Z,21.10
2018-06-02T12:24:08.689Z,19.45
2018-06-02T12:26:37.149Z,19.20
2018-06-02T12:29:05.543Z,26.87
2018-06-02T12:31:33.968Z,25.98
2018-06-02T12:34:02.487Z,27.95
2018-06-02T12:36:30.954Z,24.20
2018-06-02T12:38:59.404Z,22.33
2018-06-02T12:41:27.819Z,20.62
2018-06-02T12:43:56.223Z,24.30
2018-06-02T12:46:24.721Z,23.75
2018-06-02T12:48:53.156Z,20.92
2018-06-02T12:51:21.578Z,24.12
2018-06-02T12:53:50.092Z,23.40
2018-06-02T12:56:18.504Z,21.73
2018-06-02T12:58:47.749Z,25.83
2018-06-02T13:01:16.266Z,21.35
2018-06-02T13:03:44.664Z,20.17
2018-06-02T13:06:13.090Z,22.73
2018-06-02T13:08:41.574Z,22.20
2018-06-02T13:11:10.056Z,23.17
2018-06-02T13:13:38.536Z,21.05
2018-06-02T13:16:07.009Z,24.25
2018-06-02T13:18:35.561Z,20.65
2018-06-02T13:21:04.008Z,19.05
2018-06-02T13:23:32.549Z,20.15
2018-06-02T13:26:01.189Z,20.27
2018-06-02T13:28:29.633Z,18.80
2018-06-02T13:30:58.184Z,14.80
2018-06-02T13:33:27.646Z,14.65
2018-06-02T13:35:56.120Z,14.35
2018-06-02T13:38:24.582Z,12.43
2018-06-02T13:40:53.229Z,15.15
2018-06-02T13:43:21.652Z,15.57
2018-06-02T13:45:50.113Z,12.77
2018-06-02T13:48:18.672Z,11.32
2018-06-02T13:50:47.451Z,13.15
2018-06-02T13:53:15.990Z,13.57
2018-06-02T13:55:44.483Z,14.73
2018-06-02T13:58:14.543Z,10.82
2018-06-02T14:00:43.035Z,14.05
2018-06-02T14:03:11.483Z,17.02
2018-06-02T14:05:39.959Z,17.37
2018-06-02T14:08:09.183Z,18.35
2018-06-02T14:10:37.618Z,18.95
2018-06-02T14:13:06.177Z,15.13
2018-06-02T14:15:34.641Z,15.60
2018-06-02T14:18:03.898Z,16.50
2018-06-02T14:20:33.284Z,15.48
2018-06-02T14:23:01.830Z,13.23
2018-06-02T14:25:31.149Z,12.55
2018-06-02T14:27:59.497Z,15.10
2018-06-02T14:30:29.899Z,14.68
2018-06-02T14:32:58.445Z,13.68
2018-06-02T14:35:27.608Z,16.23
2018-06-02T14:37:56.810Z,16.80
2018-06-02T14:40:25.325Z,16.60
2018-06-02T14:42:53.722Z,16.60
2018-06-02T14:45:22.123Z,16.08
2018-06-02T14:47:50.654Z,16.10
2018-06-02T14:50:19.822Z,18.90
2018-06-02T14:52:48.229Z,20.10
2018-06-02T14:55:16.812Z,18.23
2018-06-02T14:57:45.142Z,17.67
2018-06-02T15:00:13.585Z,18.50
2018-06-02T15:02:42.081Z,16.95
2018-06-02T15:05:10.499Z,15.88
2018-06-02T15:07:38.956Z,16.33
2018-06-02T15:10:07.375Z,15.13
2018-06-02T15:12:36.529Z,13.45
2018-06-02T15:15:05.046Z,12.85
2018-06-02T15:17:35.348Z,12.37
2018-06-02T15:20:05.436Z,13.18
2018-06-02T15:22:34.232Z,15.07
2018-06-02T15:25:02.716Z,14.75
2018-06-02T15:27:31.123Z,17.60
2018-06-02T15:29:59.608Z,14.48
2018-06-02T15:32:28.024Z,17.62
2018-06-02T15:34:56.454Z,17.27
2018-06-02T15:37:24.817Z,13.40
2018-06-02T15:39:53.310Z,13.65
2018-06-02T15:42:21.785Z,10.82
2018-06-02T15:44:50.292Z,9.57
2018-06-02T15:47:18.755Z,9.43
2018-06-02T15:49:47.184Z,10.23
2018-06-02T15:52:16.571Z,6.00
2018-06-02T15:54:45.133Z,4.45
2018-06-02T15:57:13.628Z,6.45
2018-06-02T15:59:42.118Z,6.32
2018-06-02T16:02:10.492Z,7.82
2018-06-02T16:04:38.924Z,5.65
2018-06-02T16:07:07.350Z,6.57
2018-06-02T16:09:35.806Z,5.30
2018-06-02T16:12:04.203Z,5.75
2018-06-02T16:14:32.632Z,6.90
2018-06-02T16:17:01.024Z,5.47
2018-06-02T16:19:29.381Z,5.97
2018-06-02T16:21:58.593Z,5.47
2018-06-02T16:24:27.040Z,7.22
2018-06-02T16:26:55.389Z,7.40
2018-06-02T16:29:23.818Z,6.93
2018-06-02T16:31:52.238Z,8.63
2018-06-02T16:34:20.659Z,8.55
2018-06-02T16:36:49.069Z,7.22
2018-06-02T16:39:17.486Z,6.20
2018-06-02T16:41:45.962Z,6.40
2018-06-02T16:44:14.378Z,9.50
2018-06-02T16:46:43.559Z,7.97
2018-06-02T16:49:11.993Z,8.30
2018-06-02T16:51:40.374Z,7.65
2018-06-02T16:56:43.297Z,9.20
2018-06-02T16:59:11.641Z,9.07
2018-06-02T17:01:40.817Z,10.57
2018-06-02T17:04:09.224Z,11.45
2018-06-02T17:06:38.380Z,9.13
2018-06-02T17:09:06.831Z,8.13
2018-06-02T17:11:35.301Z,8.25
2018-06-02T17:14:03.922Z,8.05
2018-06-02T17:16:32.440Z,8.55
2018-06-02T17:19:01.656Z,7.65
2018-06-02T17:21:30.177Z,7.72
2018-06-02T17:24:53.633Z,7.75
2018-06-02T17:43:28.423Z,9.28
2018-06-02T17:46:00.752Z,9.35
2018-06-02T17:48:31.692Z,8.95
2018-06-02T17:51:02.534Z,10.45
2018-06-02T17:53:33.482Z,11.97
2018-06-02T17:56:04.552Z,12.60
2018-06-02T17:58:35.363Z,10.72
2018-06-02T18:01:06.161Z,13.72
2018-06-02T18:03:37.079Z,12.50
2018-06-02T18:06:07.916Z,12.03
2018-06-02T18:08:38.872Z,11.40
2018-06-02T18:11:09.784Z,13.05
2018-06-02T18:13:40.821Z,12.55
2018-06-02T18:16:12.077Z,13.65
2018-06-02T18:18:43.020Z,10.40
2018-06-02T18:21:14.235Z,12.80
2018-06-02T18:23:45.653Z,14.90
2018-06-02T18:26:16.467Z,14.28
2018-06-02T18:28:47.902Z,12.37
2018-06-02T18:31:19.113Z,11.28
2018-06-02T18:33:49.870Z,9.75
2018-06-02T18:36:20.863Z,10.55
2018-06-02T18:38:51.656Z,9.68
2018-06-02T18:41:22.529Z,10.00
2018-06-02T18:43:53.708Z,12.30
2018-06-02T18:46:25.028Z,15.05
2018-06-02T18:48:56.071Z,14.98
2018-06-02T18:51:27.343Z,14.15
2018-06-02T18:53:58.398Z,13.43
2018-06-02T18:56:29.234Z,16.65
2018-06-02T18:59:00.499Z,13.83
2018-06-02T19:01:31.283Z,14.30
2018-06-02T19:04:02.198Z,15.03
2018-06-02T19:06:32.876Z,14.20
2018-06-02T19:09:03.846Z,14.70
2018-06-02T19:11:34.713Z,17.55
2018-06-02T19:14:05.538Z,16.57
2018-06-02T19:16:35.959Z,14.03
2018-06-02T19:19:06.880Z,13.50
2018-06-02T19:21:39.507Z,15.93
2018-06-02T19:24:10.150Z,13.35
2018-06-02T19:26:40.656Z,16.67
2018-06-02T19:29:11.335Z,15.08
2018-06-02T19:31:42.256Z,13.20
2018-06-02T19:34:12.368Z,13.32
2018-06-02T19:36:42.677Z,14.98
2018-06-02T19:39:13.003Z,14.00
2018-06-02T19:41:43.222Z,16.27
2018-06-02T19:44:13.503Z,16.25
2018-06-02T19:46:43.757Z,16.75
2018-06-02T19:49:13.977Z,13.93
2018-06-02T19:51:44.270Z,14.90
2018-06-02T19:54:14.578Z,14.18
2018-06-02T19:56:44.919Z,14.63
2018-06-02T19:59:15.150Z,14.78
2018-06-02T20:01:47.401Z,13.90
2018-06-02T20:04:20.562Z,14.75
2018-06-02T20:06:53.182Z,14.58
2018-06-02T20:09:26.329Z,20.65
2018-06-02T20:11:56.584Z,14.70
2018-06-02T20:14:26.777Z,15.45
2018-06-02T20:16:59.676Z,15.65
2018-06-02T20:19:41.541Z,15.78
2018-06-02T20:22:11.714Z,13.88
2018-06-02T20:24:41.865Z,15.55
2018-06-02T20:27:11.996Z,15.88
2018-06-02T20:29:42.326Z,14.45
2018-06-02T20:32:12.547Z,13.98
2018-06-02T20:34:42.832Z,16.55
2018-06-02T20:37:13.017Z,15.40
2018-06-02T20:39:43.244Z,14.00
2018-06-02T20:42:13.492Z,14.75
2018-06-02T20:44:43.696Z,13.90
2018-06-02T20:47:13.865Z,14.10
2018-06-02T20:49:44.048Z,15.80
2018-06-02T20:52:17.821Z,14.25
2018-06-02T20:54:48.054Z,13.40
2018-06-02T20:57:18.288Z,14.63
2018-06-02T20:59:48.489Z,15.00
2018-06-02T21:02:18.694Z,14.20
2018-06-02T21:04:48.921Z,14.65
2018-06-02T21:07:19.073Z,14.30
2018-06-02T21:09:52.851Z,15.25
2018-06-02T21:12:22.932Z,17.15
2018-06-02T21:14:53.133Z,17.85
2018-06-02T21:17:23.327Z,17.60
2018-06-02T21:19:53.532Z,17.27
2018-06-02T21:22:23.694Z,15.13
2018-06-02T21:24:53.739Z,18.17
2018-06-02T21:27:23.992Z,16.17
2018-06-02T21:29:54.214Z,14.93
2018-06-02T21:32:24.530Z,17.37
2018-06-02T21:34:54.717Z,17.62
2018-06-02T21:37:24.977Z,16.12
2018-06-02T21:39:55.208Z,16.37
2018-06-02T21:42:25.542Z,16.50
2018-06-02T21:44:55.914Z,18.80
2018-06-02T21:47:26.259Z,20.23
2018-06-02T21:49:56.600Z,19.27
2018-06-02T21:52:26.891Z,18.53
2018-06-02T21:54:57.302Z,18.20
2018-06-02T21:57:28.733Z,19.50
2018-06-02T21:59:59.775Z,18.43
2018-06-02T22:02:30.978Z,19.10
2018-06-02T22:05:01.895Z,17.30
2018-06-02T22:07:32.883Z,18.43
2018-06-02T22:10:03.803Z,18.03
2018-06-02T22:12:34.874Z,17.57
2018-06-02T22:15:05.898Z,15.85
2018-06-02T22:17:36.743Z,16.43
2018-06-02T22:20:06.951Z,17.87
2018-06-02T22:22:38.047Z,20.30
2018-06-02T22:25:09.015Z,22.77
2018-06-02T22:27:39.684Z,20.37
2018-06-02T22:30:10.580Z,19.90
2018-06-02T22:32:41.294Z,17.87
2018-06-02T22:35:11.927Z,21.43
2018-06-02T22:37:42.701Z,22.50
2018-06-02T22:40:13.592Z,18.17
2018-06-02T22:42:44.421Z,19.23
2018-06-02T22:45:15.214Z,20.00
2018-06-02T22:47:46.141Z,19.37
2018-06-02T22:50:16.956Z,19.07
2018-06-02T22:52:47.854Z,18.17
2018-06-02T22:55:18.628Z,22.57
2018-06-02T22:57:49.588Z,23.53
2018-06-02T23:00:21.788Z,18.63
2018-06-02T23:02:52.013Z,20.53
2018-06-02T23:05:23.114Z,19.30
2018-06-02T23:07:54.104Z,19.87
2018-06-02T23:10:24.897Z,20.17
2018-06-02T23:12:55.754Z,20.67
2018-06-02T23:15:26.509Z,20.00
2018-06-02T23:17:57.199Z,22.63
2018-06-02T23:20:27.955Z,21.80
2018-06-02T23:22:58.794Z,20.77
2018-06-02T23:25:29.540Z,21.60
2018-06-02T23:28:00.236Z,20.00
2018-06-02T23:30:31.174Z,22.87
2018-06-02T23:33:10.667Z,19.77
2018-06-02T23:35:41.531Z,19.80
2018-06-02T23:38:12.974Z,22.67
2018-06-02T23:40:43.756Z,18.17
2018-06-02T23:43:14.505Z,19.00
2018-06-02T23:45:45.342Z,19.90
2018-06-02T23:48:17.851Z,23.13
2018-06-02T23:50:48.635Z,23.13
2018-06-02T23:53:19.637Z,24.70
2018-06-02T23:55:49.896Z,24.10
2018-06-02T23:58:20.709Z,22.30
